createdAt,value
2022-12-23T00:00:17.613Z,991.53
2022-12-23T00:01:17.644Z,991.47
2022-12-23T00:02:17.648Z,991.46
2022-12-23T00:03:17.612Z,991.48
2022-12-23T00:04:17.638Z,991.46
2022-12-23T00:05:17.529Z,991.40
2022-12-23T00:06:17.601Z,991.38
2022-12-23T00:07:17.509Z,991.42
2022-12-23T00:08:17.516Z,991.39
2022-12-23T00:09:17.495Z,991.34
2022-12-23T00:10:17.518Z,991.34
2022-12-23T00:11:17.500Z,991.31
2022-12-23T00:12:17.493Z,991.32
2022-12-23T00:13:17.448Z,991.29
2022-12-23T00:14:21.518Z,991.29
2022-12-23T00:15:17.429Z,991.28
2022-12-23T00:16:17.500Z,991.29
2022-12-23T00:17:22.764Z,991.28
2022-12-23T00:18:18.419Z,991.26
2022-12-23T00:19:17.441Z,991.27
2022-12-23T00:20:17.408Z,991.29
2022-12-23T00:21:17.409Z,991.27
2022-12-23T00:22:17.395Z,991.27
2022-12-23T00:23:17.356Z,991.26
2022-12-23T00:24:17.371Z,991.21
2022-12-23T00:25:17.363Z,991.22
2022-12-23T00:26:17.359Z,991.23
2022-12-23T00:27:17.325Z,991.25
2022-12-23T00:28:17.324Z,991.27
2022-12-23T00:29:17.356Z,991.27
2022-12-23T00:30:17.321Z,991.18
2022-12-23T00:31:17.335Z,991.22
2022-12-23T00:32:17.370Z,991.20
2022-12-23T00:33:17.280Z,991.19
2022-12-23T00:34:17.248Z,991.13
2022-12-23T00:35:17.238Z,991.11
2022-12-23T00:36:17.279Z,991.13
2022-12-23T00:37:17.225Z,991.11
2022-12-23T00:38:17.239Z,991.09
2022-12-23T00:39:17.208Z,991.07
2022-12-23T00:40:17.209Z,991.09
2022-12-23T00:41:17.187Z,991.06
2022-12-23T00:42:17.203Z,991.08
2022-12-23T00:43:17.213Z,991.13
2022-12-23T00:44:17.167Z,991.10
2022-12-23T00:45:17.128Z,991.08
2022-12-23T00:46:17.181Z,991.10
2022-12-23T00:47:17.138Z,991.09
2022-12-23T00:48:17.127Z,991.10
2022-12-23T00:49:17.132Z,991.06
2022-12-23T00:50:17.103Z,991.14
2022-12-23T00:51:17.057Z,991.12
2022-12-23T00:52:17.108Z,991.13
2022-12-23T00:53:17.040Z,991.14
2022-12-23T00:54:17.063Z,991.14
2022-12-23T00:55:17.065Z,991.19
2022-12-23T00:56:17.026Z,991.16
2022-12-23T00:57:17.031Z,991.20
2022-12-23T00:58:17.004Z,991.17
2022-12-23T00:59:17.016Z,991.17
2022-12-23T01:00:17.001Z,991.12
2022-12-23T01:01:17.061Z,991.13
2022-12-23T01:02:17.059Z,991.10
2022-12-23T01:03:17.070Z,991.14
2022-12-23T01:04:16.966Z,991.12
2022-12-23T01:05:16.931Z,991.14
2022-12-23T01:06:16.979Z,991.16
2022-12-23T01:07:16.901Z,991.16
2022-12-23T01:08:16.921Z,991.18
2022-12-23T01:09:16.892Z,991.21
2022-12-23T01:10:16.908Z,991.18
2022-12-23T01:11:16.859Z,991.23
2022-12-23T01:12:16.853Z,991.24
2022-12-23T01:13:16.912Z,991.22
2022-12-23T01:14:16.846Z,991.22
2022-12-23T01:15:16.836Z,991.21
2022-12-23T01:16:17.953Z,991.18
2022-12-23T01:17:16.927Z,991.19
2022-12-23T01:18:16.863Z,991.18
2022-12-23T01:19:16.791Z,991.21
2022-12-23T01:20:16.786Z,991.22
2022-12-23T01:21:16.770Z,991.24
2022-12-23T01:22:16.783Z,991.17
2022-12-23T01:23:16.742Z,991.24
2022-12-23T01:24:16.774Z,991.20
2022-12-23T01:25:16.740Z,991.26
2022-12-23T01:26:16.723Z,991.25
2022-12-23T01:27:16.708Z,991.27
2022-12-23T01:28:16.728Z,991.26
2022-12-23T01:29:16.721Z,991.20
2022-12-23T01:30:16.689Z,991.24
2022-12-23T01:31:16.714Z,991.27
2022-12-23T01:32:16.746Z,991.27
2022-12-23T01:33:16.667Z,991.34
2022-12-23T01:34:16.668Z,991.33
2022-12-23T01:35:16.609Z,991.31
2022-12-23T01:36:16.622Z,991.29
2022-12-23T01:37:16.630Z,991.31
2022-12-23T01:38:16.594Z,991.34
2022-12-23T01:39:16.584Z,991.30
2022-12-23T01:40:16.632Z,991.29
2022-12-23T01:41:16.577Z,991.32
2022-12-23T01:42:16.621Z,991.29
2022-12-23T01:43:16.551Z,991.30
2022-12-23T01:44:16.540Z,991.29
2022-12-23T01:45:16.528Z,991.27
2022-12-23T01:46:16.602Z,991.33
2022-12-23T01:47:16.502Z,991.34
2022-12-23T01:48:16.531Z,991.36
2022-12-23T01:49:16.469Z,991.40
2022-12-23T01:50:16.516Z,991.36
2022-12-23T01:51:16.468Z,991.37
2022-12-23T01:52:16.475Z,991.38
2022-12-23T01:53:16.437Z,991.38
2022-12-23T01:54:16.426Z,991.41
2022-12-23T01:55:16.410Z,991.41
2022-12-23T01:56:16.445Z,991.44
2022-12-23T01:57:16.414Z,991.47
2022-12-23T01:58:16.412Z,991.50
2022-12-23T01:59:16.385Z,991.55
2022-12-23T02:00:16.367Z,991.60
2022-12-23T02:01:16.423Z,991.56
2022-12-23T02:02:16.637Z,991.65
2022-12-23T02:03:16.398Z,991.63
2022-12-23T02:04:16.332Z,991.65
2022-12-23T02:05:16.314Z,991.66
2022-12-23T02:06:16.380Z,991.71
2022-12-23T02:07:16.296Z,991.69
2022-12-23T02:08:16.286Z,991.69
2022-12-23T02:09:16.308Z,991.72
2022-12-23T02:10:16.278Z,991.74
2022-12-23T02:11:16.330Z,991.73
2022-12-23T02:12:16.288Z,991.74
2022-12-23T02:13:16.273Z,991.72
2022-12-23T02:14:16.229Z,991.72
2022-12-23T02:15:16.219Z,991.73
2022-12-23T02:16:16.323Z,991.71
2022-12-23T02:17:16.205Z,991.68
2022-12-23T02:18:16.190Z,991.73
2022-12-23T02:19:16.192Z,991.75
2022-12-23T02:20:16.188Z,991.72
2022-12-23T02:21:16.161Z,991.72
2022-12-23T02:22:16.179Z,991.79
2022-12-23T02:23:16.148Z,991.77
2022-12-23T02:24:16.127Z,991.74
2022-12-23T02:25:16.106Z,991.78
2022-12-23T02:26:16.113Z,991.79
2022-12-23T02:27:16.170Z,991.85
2022-12-23T02:28:16.091Z,991.84
2022-12-23T02:29:16.096Z,991.90
2022-12-23T02:30:16.057Z,991.86
2022-12-23T02:31:16.102Z,991.92
2022-12-23T02:32:16.090Z,991.94
2022-12-23T02:33:16.046Z,991.90
2022-12-23T02:34:16.023Z,991.92
2022-12-23T02:35:16.016Z,991.94
2022-12-23T02:36:16.020Z,991.95
2022-12-23T02:37:16.014Z,991.99
2022-12-23T02:38:15.976Z,991.96
2022-12-23T02:39:15.976Z,991.94
2022-12-23T02:40:15.962Z,991.98
2022-12-23T02:41:15.940Z,992.01
2022-12-23T02:42:15.954Z,992.02
2022-12-23T02:43:15.952Z,992.05
2022-12-23T02:44:15.914Z,992.04
2022-12-23T02:45:16.016Z,992.03
2022-12-23T02:46:15.941Z,992.03
2022-12-23T02:47:15.880Z,991.99
2022-12-23T02:48:15.904Z,992.03
2022-12-23T02:49:15.866Z,992.04
2022-12-23T02:50:15.880Z,992.07
2022-12-23T02:51:15.860Z,992.07
2022-12-23T02:52:15.863Z,992.09
2022-12-23T02:53:15.852Z,992.12
2022-12-23T02:54:15.868Z,992.13
2022-12-23T02:55:15.828Z,992.08
2022-12-23T02:56:15.787Z,992.12
2022-12-23T02:57:15.822Z,992.12
2022-12-23T02:58:15.835Z,992.13
2022-12-23T02:59:15.770Z,992.09
2022-12-23T03:00:15.742Z,992.09
2022-12-23T03:01:15.780Z,992.11
2022-12-23T03:02:15.866Z,992.08
2022-12-23T03:03:15.869Z,992.11
2022-12-23T03:04:15.788Z,992.13
2022-12-23T03:05:15.739Z,992.14
2022-12-23T03:06:15.681Z,992.17
2022-12-23T03:07:18.638Z,992.16
2022-12-23T03:08:15.663Z,992.14
2022-12-23T03:09:15.707Z,992.18
2022-12-23T03:10:15.665Z,992.21
2022-12-23T03:11:15.651Z,992.22
2022-12-23T03:12:15.612Z,992.24
2022-12-23T03:13:15.694Z,992.27
2022-12-23T03:14:15.672Z,992.27
2022-12-23T03:15:15.614Z,992.25
2022-12-23T03:16:15.668Z,992.28
2022-12-23T03:17:15.613Z,992.29
2022-12-23T03:18:15.568Z,992.32
2022-12-23T03:19:15.600Z,992.32
2022-12-23T03:20:15.555Z,992.33
2022-12-23T03:21:15.570Z,992.38
2022-12-23T03:22:15.529Z,992.37
2022-12-23T03:23:15.520Z,992.36
2022-12-23T03:24:15.541Z,992.32
2022-12-23T03:25:15.741Z,992.36
2022-12-23T03:26:15.493Z,992.40
2022-12-23T03:27:15.498Z,992.41
2022-12-23T03:28:15.463Z,992.40
2022-12-23T03:29:15.493Z,992.40
2022-12-23T03:30:15.432Z,992.42
2022-12-23T03:31:15.476Z,992.42
2022-12-23T03:32:15.443Z,992.44
2022-12-23T03:33:15.420Z,992.46
2022-12-23T03:34:15.430Z,992.46
2022-12-23T03:35:15.399Z,992.48
2022-12-23T03:36:15.382Z,992.45
2022-12-23T03:37:15.374Z,992.53
2022-12-23T03:38:15.347Z,992.49
2022-12-23T03:39:15.412Z,992.58
2022-12-23T03:40:15.349Z,992.52
2022-12-23T03:41:15.347Z,992.51
2022-12-23T03:42:15.317Z,992.51
2022-12-23T03:43:15.311Z,992.52
2022-12-23T03:44:15.310Z,992.57
2022-12-23T03:46:16.355Z,992.57
2022-12-23T03:47:15.272Z,992.63
2022-12-23T03:48:15.263Z,992.60
2022-12-23T03:49:15.251Z,992.62
2022-12-23T03:50:15.250Z,992.59
2022-12-23T03:51:15.243Z,992.63
2022-12-23T03:52:21.162Z,992.65
2022-12-23T03:53:16.247Z,992.70
2022-12-23T03:54:15.207Z,992.71
2022-12-23T03:55:15.239Z,992.74
2022-12-23T03:56:15.180Z,992.77
2022-12-23T03:57:15.178Z,992.79
2022-12-23T03:58:15.148Z,992.78
2022-12-23T03:59:15.144Z,992.86
2022-12-23T04:00:15.166Z,992.86
2022-12-23T04:01:17.652Z,992.86
2022-12-23T04:02:15.253Z,992.91
2022-12-23T04:03:15.115Z,992.84
2022-12-23T04:04:15.164Z,992.82
2022-12-23T04:05:15.134Z,992.88
2022-12-23T04:06:15.078Z,992.91
2022-12-23T04:07:15.081Z,992.93
2022-12-23T04:08:15.040Z,992.94
2022-12-23T04:09:19.944Z,992.95
2022-12-23T04:10:16.073Z,992.99
2022-12-23T04:11:15.029Z,992.94
2022-12-23T04:12:15.030Z,992.97
2022-12-23T04:13:15.022Z,992.99
2022-12-23T04:14:14.998Z,993.00
2022-12-23T04:15:15.045Z,992.95
2022-12-23T04:16:15.042Z,992.91
2022-12-23T04:17:14.974Z,992.93
2022-12-23T04:18:14.943Z,992.83
2022-12-23T04:19:14.950Z,992.83
2022-12-23T04:20:14.965Z,992.91
2022-12-23T04:21:14.962Z,992.92
2022-12-23T04:22:14.912Z,992.95
2022-12-23T04:23:14.951Z,992.96
2022-12-23T04:24:14.876Z,992.99
2022-12-23T04:25:14.887Z,993.08
2022-12-23T04:26:14.915Z,993.09
2022-12-23T04:27:14.871Z,993.11
2022-12-23T04:28:14.848Z,993.18
2022-12-23T04:29:14.852Z,993.17
2022-12-23T04:30:14.837Z,993.17
2022-12-23T04:31:14.934Z,993.25
2022-12-23T04:32:14.816Z,993.25
2022-12-23T04:33:14.791Z,993.26
2022-12-23T04:34:14.805Z,993.31
2022-12-23T04:35:14.844Z,993.45
2022-12-23T04:36:14.777Z,993.39
2022-12-23T04:37:14.793Z,993.42
2022-12-23T04:38:14.743Z,993.39
2022-12-23T04:39:14.793Z,993.39
2022-12-23T04:40:14.731Z,993.42
2022-12-23T04:41:14.731Z,993.40
2022-12-23T04:42:14.698Z,993.42
2022-12-23T04:43:14.737Z,993.39
2022-12-23T04:44:14.698Z,993.38
2022-12-23T04:45:14.701Z,993.37
2022-12-23T04:46:14.706Z,993.39
2022-12-23T04:47:14.693Z,993.39
2022-12-23T04:48:14.671Z,993.41
2022-12-23T04:49:14.646Z,993.38
2022-12-23T04:50:14.625Z,993.39
2022-12-23T04:51:14.660Z,993.36
2022-12-23T04:52:14.591Z,993.27
2022-12-23T04:53:14.647Z,993.24
2022-12-23T04:54:14.582Z,993.18
2022-12-23T04:55:14.592Z,993.19
2022-12-23T04:56:14.561Z,993.23
2022-12-23T04:57:14.603Z,993.19
2022-12-23T04:58:14.561Z,993.18
2022-12-23T04:59:14.555Z,993.19
2022-12-23T05:00:14.528Z,993.16
2022-12-23T05:01:14.553Z,993.17
2022-12-23T05:02:14.673Z,993.19
2022-12-23T05:03:14.562Z,993.19
2022-12-23T05:04:14.544Z,993.23
2022-12-23T05:05:14.511Z,993.25
2022-12-23T05:06:14.455Z,993.24
2022-12-23T05:07:14.453Z,993.18
2022-12-23T05:08:14.443Z,993.17
2022-12-23T05:09:14.426Z,993.16
2022-12-23T05:10:14.521Z,993.20
2022-12-23T05:11:14.425Z,993.22
2022-12-23T05:12:14.404Z,993.24
2022-12-23T05:13:14.422Z,993.25
2022-12-23T05:14:14.393Z,993.29
2022-12-23T05:15:14.426Z,993.25
2022-12-23T05:16:14.435Z,993.27
2022-12-23T05:17:14.391Z,993.22
2022-12-23T05:18:14.341Z,993.19
2022-12-23T05:19:14.344Z,993.25
2022-12-23T05:20:14.342Z,993.35
2022-12-23T05:21:14.328Z,993.39
2022-12-23T05:22:14.305Z,993.43
2022-12-23T05:23:14.301Z,993.42
2022-12-23T05:24:14.287Z,993.43
2022-12-23T05:25:14.288Z,993.42
2022-12-23T05:26:14.251Z,993.42
2022-12-23T05:27:14.257Z,993.47
2022-12-23T05:28:14.258Z,993.42
2022-12-23T05:29:14.238Z,993.34
2022-12-23T05:30:14.235Z,993.31
2022-12-23T05:31:14.273Z,993.33
2022-12-23T05:32:14.189Z,993.29
2022-12-23T05:33:14.259Z,993.24
2022-12-23T05:34:14.173Z,993.30
2022-12-23T05:35:14.199Z,993.32
2022-12-23T05:36:14.174Z,993.35
2022-12-23T05:37:14.187Z,993.33
2022-12-23T05:38:14.138Z,993.33
2022-12-23T05:39:14.111Z,993.39
2022-12-23T05:40:15.068Z,993.41
2022-12-23T05:41:14.153Z,993.45
2022-12-23T05:42:14.086Z,993.48
2022-12-23T05:43:14.108Z,993.51
2022-12-23T05:44:14.071Z,993.55
2022-12-23T05:45:14.071Z,993.55
2022-12-23T05:46:14.195Z,993.52
2022-12-23T05:47:14.047Z,993.52
2022-12-23T05:48:14.028Z,993.52
2022-12-23T05:49:14.043Z,993.53
2022-12-23T05:50:14.007Z,993.53
2022-12-23T05:51:14.022Z,993.50
2022-12-23T05:52:14.010Z,993.50
2022-12-23T05:53:13.990Z,993.55
2022-12-23T05:54:13.986Z,993.55
2022-12-23T05:55:13.958Z,993.50
2022-12-23T05:56:13.961Z,993.56
2022-12-23T05:57:13.990Z,993.52
2022-12-23T05:58:13.934Z,993.52
2022-12-23T05:59:13.925Z,993.54
2022-12-23T06:00:13.916Z,993.53
2022-12-23T06:01:13.973Z,993.54
2022-12-23T06:02:14.119Z,993.58
2022-12-23T06:03:14.009Z,993.55
2022-12-23T06:04:13.943Z,993.57
2022-12-23T06:05:13.910Z,993.59
2022-12-23T06:06:13.859Z,993.55
2022-12-23T06:07:13.870Z,993.51
2022-12-23T06:08:13.831Z,993.52
2022-12-23T06:09:13.825Z,993.55
2022-12-23T06:10:13.813Z,993.54
2022-12-23T06:11:13.821Z,993.55
2022-12-23T06:12:13.813Z,993.52
2022-12-23T06:13:13.792Z,993.51
2022-12-23T06:14:13.755Z,993.49
2022-12-23T06:15:13.765Z,993.53
2022-12-23T06:16:13.800Z,993.54
2022-12-23T06:17:13.780Z,993.55
2022-12-23T06:18:13.762Z,993.60
2022-12-23T06:19:13.741Z,993.60
2022-12-23T06:20:20.217Z,993.66
2022-12-23T06:21:14.708Z,993.70
2022-12-23T06:22:13.691Z,993.73
2022-12-23T06:23:13.722Z,993.75
2022-12-23T06:24:13.651Z,993.76
2022-12-23T06:25:13.682Z,993.80
2022-12-23T06:26:13.653Z,993.72
2022-12-23T06:27:13.693Z,993.76
2022-12-23T06:28:13.628Z,993.77
2022-12-23T06:29:13.647Z,993.77
2022-12-23T06:30:13.626Z,993.78
2022-12-23T06:31:13.615Z,993.76
2022-12-23T06:32:13.697Z,993.78
2022-12-23T06:33:13.620Z,993.77
2022-12-23T06:34:13.621Z,993.75
2022-12-23T06:35:13.564Z,993.70
2022-12-23T06:36:13.566Z,993.73
2022-12-23T06:37:13.552Z,993.73
2022-12-23T06:38:13.506Z,993.70
2022-12-23T06:39:13.549Z,993.73
2022-12-23T06:40:13.503Z,993.74
2022-12-23T06:41:13.529Z,993.84
2022-12-23T06:42:13.473Z,993.88
2022-12-23T06:43:13.531Z,993.89
2022-12-23T06:44:13.504Z,993.86
2022-12-23T06:45:13.491Z,993.86
2022-12-23T06:46:13.548Z,993.86
2022-12-23T06:47:13.428Z,993.90
2022-12-23T06:48:13.411Z,993.93
2022-12-23T06:49:14.074Z,993.94
2022-12-23T06:50:13.407Z,993.94
2022-12-23T06:51:13.400Z,993.95
2022-12-23T06:52:13.363Z,993.95
2022-12-23T06:53:13.376Z,993.94
2022-12-23T06:54:13.335Z,993.99
2022-12-23T06:55:13.384Z,993.95
2022-12-23T06:56:13.349Z,993.99
2022-12-23T06:57:13.347Z,993.98
2022-12-23T06:58:13.299Z,993.97
2022-12-23T06:59:13.310Z,994.00
2022-12-23T07:00:13.321Z,994.03
2022-12-23T07:01:13.324Z,994.03
2022-12-23T07:02:13.429Z,994.03
2022-12-23T07:03:13.418Z,994.04
2022-12-23T07:04:13.261Z,994.07
2022-12-23T07:05:13.258Z,994.05
2022-12-23T07:06:13.236Z,994.08
2022-12-23T07:07:13.233Z,994.11
2022-12-23T07:08:13.212Z,994.11
2022-12-23T07:09:13.211Z,994.13
2022-12-23T07:10:13.209Z,994.12
2022-12-23T07:11:13.205Z,994.16
2022-12-23T07:12:13.182Z,994.16
2022-12-23T07:13:13.184Z,994.15
2022-12-23T07:14:13.164Z,994.12
2022-12-23T07:15:13.150Z,994.16
2022-12-23T07:16:13.258Z,994.15
2022-12-23T07:17:13.190Z,994.16
2022-12-23T07:18:13.113Z,994.16
2022-12-23T07:19:13.102Z,994.11
2022-12-23T07:20:13.126Z,994.09
2022-12-23T07:21:21.232Z,994.05
2022-12-23T07:22:14.083Z,994.00
2022-12-23T07:23:13.052Z,994.04
2022-12-23T07:24:13.057Z,993.98
2022-12-23T07:25:13.028Z,993.95
2022-12-23T07:26:13.023Z,993.92
2022-12-23T07:27:13.048Z,993.85
2022-12-23T07:28:13.047Z,993.83
2022-12-23T07:29:12.986Z,993.84
2022-12-23T07:30:12.998Z,993.88
2022-12-23T07:31:13.031Z,993.78
2022-12-23T07:32:13.092Z,993.78
2022-12-23T07:33:12.983Z,993.80
2022-12-23T07:34:12.952Z,993.79
2022-12-23T07:35:12.929Z,993.78
2022-12-23T07:36:12.936Z,993.75
2022-12-23T07:37:12.958Z,993.73
2022-12-23T07:38:12.938Z,993.74
2022-12-23T07:39:12.902Z,993.73
2022-12-23T07:40:12.895Z,993.73
2022-12-23T07:41:12.862Z,993.76
2022-12-23T07:43:13.903Z,993.75
2022-12-23T07:44:12.843Z,993.77
2022-12-23T07:45:12.823Z,993.77
2022-12-23T07:46:12.914Z,993.82
2022-12-23T07:47:12.827Z,993.81
2022-12-23T07:48:12.793Z,993.84
2022-12-23T07:49:12.814Z,993.91
2022-12-23T07:50:12.794Z,993.91
2022-12-23T07:51:12.800Z,993.97
2022-12-23T07:52:12.776Z,993.99
2022-12-23T07:53:12.746Z,994.03
2022-12-23T07:54:12.764Z,994.02
2022-12-23T07:55:12.743Z,993.99
2022-12-23T07:56:12.743Z,994.01
2022-12-23T07:57:12.694Z,994.01
2022-12-23T07:58:12.711Z,994.07
2022-12-23T07:59:12.711Z,994.09
2022-12-23T08:00:12.711Z,994.19
2022-12-23T08:01:12.681Z,994.19
2022-12-23T08:02:12.802Z,994.24
2022-12-23T08:03:12.716Z,994.28
2022-12-23T08:04:12.649Z,994.32
2022-12-23T08:05:12.752Z,994.29
2022-12-23T08:06:12.680Z,994.28
2022-12-23T08:07:12.616Z,994.28
2022-12-23T08:08:12.603Z,994.27
2022-12-23T08:09:12.605Z,994.26
2022-12-23T08:10:12.581Z,994.27
2022-12-23T08:11:12.561Z,994.27
2022-12-23T08:12:12.581Z,994.29
2022-12-23T08:13:12.551Z,994.23
2022-12-23T08:14:12.541Z,994.20
2022-12-23T08:15:12.528Z,994.18
2022-12-23T08:16:12.554Z,994.18
2022-12-23T08:17:12.615Z,994.22
2022-12-23T08:18:12.517Z,994.20
2022-12-23T08:19:12.532Z,994.17
2022-12-23T08:20:12.478Z,994.18
2022-12-23T08:21:12.458Z,994.14
2022-12-23T08:22:12.453Z,994.14
2022-12-23T08:23:12.431Z,994.13
2022-12-23T08:24:12.440Z,994.13
2022-12-23T08:25:12.436Z,994.11
2022-12-23T08:26:12.441Z,994.11
2022-12-23T08:27:12.390Z,994.13
2022-12-23T08:28:12.436Z,994.13
2022-12-23T08:29:12.376Z,994.15
2022-12-23T08:30:12.419Z,994.13
2022-12-23T08:31:12.470Z,994.15
2022-12-23T08:32:12.363Z,994.19
2022-12-23T08:33:12.328Z,994.17
2022-12-23T08:34:12.375Z,994.17
2022-12-23T08:35:12.317Z,994.12
2022-12-23T08:36:15.009Z,994.15
2022-12-23T08:37:13.288Z,994.15
2022-12-23T08:38:12.291Z,994.15
2022-12-23T08:39:12.317Z,994.13
2022-12-23T08:40:12.296Z,994.10
2022-12-23T08:41:12.269Z,994.10
2022-12-23T08:42:12.265Z,994.08
2022-12-23T08:43:12.232Z,994.09
2022-12-23T08:44:12.235Z,994.09
2022-12-23T08:45:12.285Z,994.12
2022-12-23T08:46:12.366Z,994.12
2022-12-23T08:47:12.191Z,994.12
2022-12-23T08:48:12.196Z,994.17
2022-12-23T08:49:12.193Z,994.12
2022-12-23T08:50:12.162Z,994.18
2022-12-23T08:51:12.164Z,994.15
2022-12-23T08:52:12.225Z,994.18
2022-12-23T08:53:12.133Z,994.16
2022-12-23T08:54:12.152Z,994.14
2022-12-23T08:55:12.101Z,994.10
2022-12-23T08:56:12.143Z,994.15
2022-12-23T08:57:12.113Z,994.12
2022-12-23T08:58:12.090Z,994.12
2022-12-23T08:59:18.046Z,994.11
2022-12-23T09:00:13.085Z,994.08
2022-12-23T09:01:12.060Z,994.06
2022-12-23T09:02:12.346Z,994.08
2022-12-23T09:03:12.083Z,994.14
2022-12-23T09:04:12.026Z,994.14
2022-12-23T09:05:13.025Z,994.16
2022-12-23T09:06:12.017Z,994.17
2022-12-23T09:07:12.007Z,994.15
2022-12-23T09:08:12.009Z,994.21
2022-12-23T09:09:11.990Z,994.20
2022-12-23T09:10:11.968Z,994.20
2022-12-23T09:11:12.000Z,994.25
2022-12-23T09:12:11.961Z,994.22
2022-12-23T09:13:16.256Z,994.22
2022-12-23T09:14:12.942Z,994.36
2022-12-23T09:15:11.921Z,994.34
2022-12-23T09:16:11.953Z,994.28
2022-12-23T09:17:11.893Z,994.30
2022-12-23T09:18:11.903Z,994.39
2022-12-23T09:19:11.879Z,994.40
2022-12-23T09:20:11.875Z,994.35
2022-12-23T09:21:11.850Z,994.39
2022-12-23T09:22:11.900Z,994.36
2022-12-23T09:23:11.865Z,994.35
2022-12-23T09:24:11.883Z,994.40
2022-12-23T09:25:11.795Z,994.37
2022-12-23T09:26:11.811Z,994.39
2022-12-23T09:27:11.789Z,994.38
2022-12-23T09:28:11.822Z,994.36
2022-12-23T09:29:11.765Z,994.36
2022-12-23T09:30:11.762Z,994.38
2022-12-23T09:31:11.828Z,994.36
2022-12-23T09:32:11.756Z,994.33
2022-12-23T09:33:11.773Z,994.31
2022-12-23T09:34:11.719Z,994.29
2022-12-23T09:35:11.706Z,994.33
2022-12-23T09:36:11.738Z,994.30
2022-12-23T09:37:11.678Z,994.26
2022-12-23T09:38:11.743Z,994.25
2022-12-23T09:39:11.675Z,994.20
2022-12-23T09:40:11.718Z,994.18
2022-12-23T09:41:11.636Z,994.18
2022-12-23T09:42:11.655Z,994.14
2022-12-23T09:43:11.642Z,994.22
2022-12-23T09:44:11.634Z,994.29
2022-12-23T09:45:11.593Z,994.31
2022-12-23T09:46:11.663Z,994.30
2022-12-23T09:47:11.611Z,994.28
2022-12-23T09:48:11.578Z,994.33
2022-12-23T09:49:11.605Z,994.33
2022-12-23T09:50:11.593Z,994.31
2022-12-23T09:51:11.558Z,994.33
2022-12-23T09:52:11.545Z,994.29
2022-12-23T09:53:11.523Z,994.24
2022-12-23T09:54:16.649Z,994.16
2022-12-23T09:55:12.529Z,994.18
2022-12-23T09:56:11.510Z,994.23
2022-12-23T09:57:11.474Z,994.19
2022-12-23T09:58:11.477Z,994.20
2022-12-23T09:59:11.481Z,994.17
2022-12-23T10:00:11.488Z,994.21
2022-12-23T10:01:11.456Z,994.17
2022-12-23T10:02:11.587Z,994.17
2022-12-23T10:03:11.820Z,994.16
2022-12-23T10:04:11.547Z,994.13
2022-12-23T10:05:11.754Z,994.12
2022-12-23T10:06:11.435Z,994.09
2022-12-23T10:07:11.371Z,994.13
2022-12-23T10:08:11.379Z,994.08
2022-12-23T10:09:11.375Z,994.06
2022-12-23T10:10:11.379Z,994.06
2022-12-23T10:11:11.354Z,994.05
2022-12-23T10:12:11.371Z,994.10
2022-12-23T10:13:11.384Z,994.08
2022-12-23T10:14:11.322Z,994.11
2022-12-23T10:15:11.345Z,994.18
2022-12-23T10:16:11.365Z,994.15
2022-12-23T10:17:11.281Z,994.20
2022-12-23T10:18:11.337Z,994.24
2022-12-23T10:19:11.254Z,994.27
2022-12-23T10:20:11.271Z,994.26
2022-12-23T10:21:11.259Z,994.23
2022-12-23T10:22:11.226Z,994.17
2022-12-23T10:23:11.253Z,994.13
2022-12-23T10:24:11.224Z,994.04
2022-12-23T10:25:11.244Z,994.04
2022-12-23T10:26:11.247Z,994.02
2022-12-23T10:27:11.157Z,993.97
2022-12-23T10:28:11.193Z,993.93
2022-12-23T10:29:16.872Z,993.94
2022-12-23T10:30:34.346Z,993.92
2022-12-23T10:31:39.935Z,993.89
2022-12-23T10:32:12.166Z,993.87
2022-12-23T10:33:11.127Z,993.89
2022-12-23T10:34:11.162Z,993.86
2022-12-23T10:35:11.090Z,993.83
2022-12-23T10:36:11.145Z,993.83
2022-12-23T10:37:11.194Z,993.80
2022-12-23T10:38:11.071Z,993.80
2022-12-23T10:39:11.077Z,993.81
2022-12-23T10:40:11.092Z,993.82
2022-12-23T10:41:11.030Z,993.83
2022-12-23T10:42:11.056Z,993.83
2022-12-23T10:43:11.031Z,993.80
2022-12-23T10:44:11.023Z,993.81
2022-12-23T10:45:11.032Z,993.78
2022-12-23T10:46:11.016Z,993.72
2022-12-23T10:47:11.131Z,993.66
2022-12-23T10:48:14.144Z,993.68
2022-12-23T10:49:10.987Z,993.67
2022-12-23T10:50:10.958Z,993.64
2022-12-23T10:51:10.928Z,993.64
2022-12-23T10:52:10.945Z,993.65
2022-12-23T10:53:10.913Z,993.69
2022-12-23T10:54:10.918Z,993.71
2022-12-23T10:55:10.891Z,993.70
2022-12-23T10:56:10.902Z,993.70
2022-12-23T10:57:10.913Z,993.63
2022-12-23T10:58:10.874Z,993.55
2022-12-23T10:59:10.879Z,993.53
2022-12-23T11:00:10.903Z,993.47
2022-12-23T11:01:18.670Z,993.51
2022-12-23T11:02:12.017Z,993.48
2022-12-23T11:03:10.962Z,993.53
2022-12-23T11:04:10.795Z,993.51
2022-12-23T11:05:10.815Z,993.50
2022-12-23T11:06:10.787Z,993.43
2022-12-23T11:07:42.720Z,993.42
2022-12-23T11:08:11.769Z,993.41
2022-12-23T11:09:10.782Z,993.44
2022-12-23T11:10:10.753Z,993.46
2022-12-23T11:11:10.732Z,993.45
2022-12-23T11:12:10.745Z,993.42
2022-12-23T11:13:10.692Z,993.42
2022-12-23T11:14:10.757Z,993.39
2022-12-23T11:15:10.685Z,993.45
2022-12-23T11:16:10.768Z,993.48
2022-12-23T11:17:10.712Z,993.46
2022-12-23T11:18:10.666Z,993.55
2022-12-23T11:19:10.636Z,993.53
2022-12-23T11:20:10.666Z,993.53
2022-12-23T11:21:10.618Z,993.48
2022-12-23T11:22:10.619Z,993.47
2022-12-23T11:23:10.634Z,993.43
2022-12-23T11:24:10.645Z,993.34
2022-12-23T11:25:10.607Z,993.26
2022-12-23T11:26:10.604Z,993.14
2022-12-23T11:27:10.606Z,993.13
2022-12-23T11:28:10.598Z,993.22
2022-12-23T11:29:10.558Z,993.28
2022-12-23T11:30:10.572Z,993.25
2022-12-23T11:31:10.668Z,993.26
2022-12-23T11:32:10.580Z,993.23
2022-12-23T11:33:10.538Z,993.16
2022-12-23T11:34:10.484Z,993.10
2022-12-23T11:35:10.558Z,993.01
2022-12-23T11:36:10.461Z,992.99
2022-12-23T11:37:10.468Z,992.89
2022-12-23T11:38:10.454Z,992.93
2022-12-23T11:39:10.492Z,992.93
2022-12-23T11:40:10.465Z,992.87
2022-12-23T11:41:10.440Z,992.84
2022-12-23T11:42:10.412Z,992.81
2022-12-23T11:43:10.450Z,992.82
2022-12-23T11:44:10.410Z,992.80
2022-12-23T11:45:10.402Z,992.80
2022-12-23T11:46:10.405Z,992.81
2022-12-23T11:47:10.383Z,992.78
2022-12-23T11:48:10.340Z,992.76
2022-12-23T11:49:10.403Z,992.75
2022-12-23T11:50:10.377Z,992.74
2022-12-23T11:51:10.337Z,992.65
2022-12-23T11:52:10.308Z,992.69
2022-12-23T11:53:10.337Z,992.68
2022-12-23T11:54:10.298Z,992.63
2022-12-23T11:55:10.302Z,992.57
2022-12-23T11:56:10.269Z,992.59
2022-12-23T11:57:10.394Z,992.56
2022-12-23T11:58:10.237Z,992.58
2022-12-23T11:59:10.397Z,992.55
2022-12-23T12:00:10.275Z,992.51
2022-12-23T12:01:10.264Z,992.49
2022-12-23T12:02:10.237Z,992.47
2022-12-23T12:03:10.297Z,992.48
2022-12-23T12:04:10.199Z,992.47
2022-12-23T12:05:10.238Z,992.46
2022-12-23T12:06:10.178Z,992.44
2022-12-23T12:07:10.199Z,992.41
2022-12-23T12:08:10.183Z,992.39
2022-12-23T12:09:10.158Z,992.38
2022-12-23T12:10:10.139Z,992.34
2022-12-23T12:11:10.157Z,992.27
2022-12-23T12:12:10.126Z,992.30
2022-12-23T12:13:10.107Z,992.24
2022-12-23T12:14:10.085Z,992.25
2022-12-23T12:15:10.165Z,992.22
2022-12-23T12:16:10.113Z,992.21
2022-12-23T12:17:10.134Z,992.22
2022-12-23T12:18:10.037Z,992.20
2022-12-23T12:19:10.068Z,992.21
2022-12-23T12:20:10.045Z,992.15
2022-12-23T12:21:10.043Z,992.15
2022-12-23T12:22:10.017Z,992.19
2022-12-23T12:23:10.029Z,992.14
2022-12-23T12:24:19.310Z,992.04
2022-12-23T12:25:11.026Z,992.02
2022-12-23T12:26:09.972Z,992.00
2022-12-23T12:27:09.956Z,991.98
2022-12-23T12:28:09.959Z,991.97
2022-12-23T12:29:10.151Z,991.95
2022-12-23T12:30:09.915Z,991.91